sensor_id;sensor_type;location;lat;lon;timestamp;P1;durP1;ratioP1;P2;durP2;ratioP2
20421;SDS011;10370;53.102;18.034;2023-06-14T00:03:03;18.00;;;10.02;;
20421;SDS011;10370;53.102;18.034;2023-06-14T00:08:27;20.05;;;9.20;;
20421;SDS011;10370;53.102;18.034;2023-06-14T00:13:49;15.68;;;8.73;;
20421;SDS011;10370;53.102;18.034;2023-06-14T00:19:12;13.98;;;9.15;;
20421;SDS011;10370;53.102;18.034;2023-06-14T00:24:34;15.82;;;8.52;;
20421;SDS011;10370;53.102;18.034;2023-06-14T00:29:57;11.43;;;8.23;;
20421;SDS011;10370;53.102;18.034;2023-06-14T00:35:22;13.70;;;8.93;;
20421;SDS011;10370;53.102;18.034;2023-06-14T00:40:45;14.68;;;8.68;;
20421;SDS011;10370;53.102;18.034;2023-06-14T00:46:08;12.90;;;8.48;;
20421;SDS011;10370;53.102;18.034;2023-06-14T00:51:30;13.18;;;8.50;;
20421;SDS011;10370;53.102;18.034;2023-06-14T00:56:53;14.80;;;9.20;;
20421;SDS011;10370;53.102;18.034;2023-06-14T01:02:17;12.32;;;8.73;;
20421;SDS011;10370;53.102;18.034;2023-06-14T01:13:19;16.02;;;9.10;;
20421;SDS011;10370;53.102;18.034;2023-06-14T01:18:44;15.93;;;9.43;;
20421;SDS011;10370;53.102;18.034;2023-06-14T01:24:11;17.60;;;10.43;;
20421;SDS011;10370;53.102;18.034;2023-06-14T01:29:33;15.65;;;9.15;;
20421;SDS011;10370;53.102;18.034;2023-06-14T01:34:58;21.05;;;10.45;;
20421;SDS011;10370;53.102;18.034;2023-06-14T01:40:20;21.40;;;10.70;;
20421;SDS011;10370;53.102;18.034;2023-06-14T01:45:45;15.50;;;11.18;;
20421;SDS011;10370;53.102;18.034;2023-06-14T01:51:10;16.85;;;11.32;;
20421;SDS011;10370;53.102;18.034;2023-06-14T01:56:33;17.58;;;11.60;;
20421;SDS011;10370;53.102;18.034;2023-06-14T02:01:55;16.30;;;11.43;;
20421;SDS011;10370;53.102;18.034;2023-06-14T02:07:18;16.83;;;11.90;;
20421;SDS011;10370;53.102;18.034;2023-06-14T02:12:41;18.67;;;13.18;;
20421;SDS011;10370;53.102;18.034;2023-06-14T02:18:04;20.92;;;13.95;;
20421;SDS011;10370;53.102;18.034;2023-06-14T02:23:26;19.17;;;13.90;;
20421;SDS011;10370;53.102;18.034;2023-06-14T02:28:49;19.13;;;13.57;;
20421;SDS011;10370;53.102;18.034;2023-06-14T02:34:12;17.95;;;13.68;;
20421;SDS011;10370;53.102;18.034;2023-06-14T02:39:34;19.38;;;15.27;;
20421;SDS011;10370;53.102;18.034;2023-06-14T02:44:58;23.58;;;17.00;;
20421;SDS011;10370;53.102;18.034;2023-06-14T02:50:20;23.08;;;17.35;;
20421;SDS011;10370;53.102;18.034;2023-06-14T02:55:43;20.65;;;15.27;;
20421;SDS011;10370;53.102;18.034;2023-06-14T03:01:06;21.83;;;15.52;;
20421;SDS011;10370;53.102;18.034;2023-06-14T03:06:29;22.55;;;15.25;;
20421;SDS011;10370;53.102;18.034;2023-06-14T03:11:52;21.73;;;16.15;;
20421;SDS011;10370;53.102;18.034;2023-06-14T03:17:14;20.77;;;15.65;;
20421;SDS011;10370;53.102;18.034;2023-06-14T03:22:39;20.02;;;15.60;;
20421;SDS011;10370;53.102;18.034;2023-06-14T03:28:02;23.27;;;16.00;;
20421;SDS011;10370;53.102;18.034;2023-06-14T03:33:25;24.02;;;16.20;;
20421;SDS011;10370;53.102;18.034;2023-06-14T03:38:48;21.80;;;16.52;;
20421;SDS011;10370;53.102;18.034;2023-06-14T03:44:10;21.85;;;14.80;;
20421;SDS011;10370;53.102;18.034;2023-06-14T03:49:33;23.50;;;16.35;;
20421;SDS011;10370;53.102;18.034;2023-06-14T03:54:56;22.17;;;16.55;;
20421;SDS011;10370;53.102;18.034;2023-06-14T04:00:23;24.52;;;16.80;;
20421;SDS011;10370;53.102;18.034;2023-06-14T04:05:46;27.00;;;16.50;;
20421;SDS011;10370;53.102;18.034;2023-06-14T04:11:11;25.33;;;15.02;;
20421;SDS011;10370;53.102;18.034;2023-06-14T04:16:34;24.02;;;14.45;;
20421;SDS011;10370;53.102;18.034;2023-06-14T04:21:57;22.98;;;16.25;;
20421;SDS011;10370;53.102;18.034;2023-06-14T04:27:23;24.17;;;16.27;;
20421;SDS011;10370;53.102;18.034;2023-06-14T04:32:47;30.40;;;16.10;;
20421;SDS011;10370;53.102;18.034;2023-06-14T04:38:11;22.02;;;15.85;;
20421;SDS011;10370;53.102;18.034;2023-06-14T04:43:33;25.35;;;17.25;;
20421;SDS011;10370;53.102;18.034;2023-06-14T04:49:00;24.40;;;18.58;;
20421;SDS011;10370;53.102;18.034;2023-06-14T04:54:23;26.63;;;18.50;;
20421;SDS011;10370;53.102;18.034;2023-06-14T04:59:49;27.33;;;18.88;;
20421;SDS011;10370;53.102;18.034;2023-06-14T05:05:17;27.00;;;18.63;;
20421;SDS011;10370;53.102;18.034;2023-06-14T05:10:39;26.88;;;17.83;;
20421;SDS011;10370;53.102;18.034;2023-06-14T05:16:02;23.25;;;16.33;;
20421;SDS011;10370;53.102;18.034;2023-06-14T05:21:25;26.92;;;15.43;;
20421;SDS011;10370;53.102;18.034;2023-06-14T05:26:47;20.10;;;14.48;;
20421;SDS011;10370;53.102;18.034;2023-06-14T05:32:11;25.88;;;15.68;;
20421;SDS011;10370;53.102;18.034;2023-06-14T05:37:33;23.38;;;14.82;;
20421;SDS011;10370;53.102;18.034;2023-06-14T05:42:56;21.17;;;14.30;;
20421;SDS011;10370;53.102;18.034;2023-06-14T05:48:19;22.33;;;14.15;;
20421;SDS011;10370;53.102;18.034;2023-06-14T05:53:41;23.77;;;13.88;;
20421;SDS011;10370;53.102;18.034;2023-06-14T05:59:04;20.42;;;13.13;;
20421;SDS011;10370;53.102;18.034;2023-06-14T06:04:27;23.63;;;13.13;;
20421;SDS011;10370;53.102;18.034;2023-06-14T06:09:49;20.48;;;12.93;;
20421;SDS011;10370;53.102;18.034;2023-06-14T06:15:12;26.08;;;13.18;;
20421;SDS011;10370;53.102;18.034;2023-06-14T06:20:35;22.38;;;14.40;;
20421;SDS011;10370;53.102;18.034;2023-06-14T06:25:58;23.45;;;14.25;;
20421;SDS011;10370;53.102;18.034;2023-06-14T06:31:20;18.70;;;13.30;;
20421;SDS011;10370;53.102;18.034;2023-06-14T06:36:44;20.75;;;13.48;;
20421;SDS011;10370;53.102;18.034;2023-06-14T06:42:07;23.02;;;13.38;;
20421;SDS011;10370;53.102;18.034;2023-06-14T06:47:29;23.42;;;12.52;;
20421;SDS011;10370;53.102;18.034;2023-06-14T06:52:53;19.02;;;12.20;;
20421;SDS011;10370;53.102;18.034;2023-06-14T06:58:16;19.40;;;11.45;;
20421;SDS011;10370;53.102;18.034;2023-06-14T07:03:38;21.50;;;10.90;;
20421;SDS011;10370;53.102;18.034;2023-06-14T07:09:01;16.77;;;10.45;;
20421;SDS011;10370;53.102;18.034;2023-06-14T07:14:25;19.30;;;10.88;;
20421;SDS011;10370;53.102;18.034;2023-06-14T07:19:48;16.23;;;9.77;;
20421;SDS011;10370;53.102;18.034;2023-06-14T07:25:11;19.13;;;10.70;;
20421;SDS011;10370;53.102;18.034;2023-06-14T07:30:38;18.27;;;10.25;;
20421;SDS011;10370;53.102;18.034;2023-06-14T07:36:00;25.75;;;10.95;;
20421;SDS011;10370;53.102;18.034;2023-06-14T07:41:23;15.10;;;10.32;;
20421;SDS011;10370;53.102;18.034;2023-06-14T07:46:47;23.77;;;10.52;;
20421;SDS011;10370;53.102;18.034;2023-06-14T07:52:11;16.75;;;10.63;;
20421;SDS011;10370;53.102;18.034;2023-06-14T07:57:35;18.98;;;10.85;;
20421;SDS011;10370;53.102;18.034;2023-06-14T08:02:58;16.98;;;10.00;;
20421;SDS011;10370;53.102;18.034;2023-06-14T08:08:22;16.20;;;9.52;;
20421;SDS011;10370;53.102;18.034;2023-06-14T08:13:45;17.70;;;8.73;;
20421;SDS011;10370;53.102;18.034;2023-06-14T08:19:07;15.88;;;9.07;;
20421;SDS011;10370;53.102;18.034;2023-06-14T08:24:30;14.60;;;9.48;;
20421;SDS011;10370;53.102;18.034;2023-06-14T08:29:52;23.33;;;9.80;;
20421;SDS011;10370;53.102;18.034;2023-06-14T08:35:15;13.85;;;8.57;;
20421;SDS011;10370;53.102;18.034;2023-06-14T08:40:38;14.90;;;8.90;;
20421;SDS011;10370;53.102;18.034;2023-06-14T08:46:04;18.42;;;8.93;;
20421;SDS011;10370;53.102;18.034;2023-06-14T08:51:32;15.20;;;9.40;;
20421;SDS011;10370;53.102;18.034;2023-06-14T08:56:58;15.68;;;9.10;;
20421;SDS011;10370;53.102;18.034;2023-06-14T09:02:22;14.73;;;9.48;;
20421;SDS011;10370;53.102;18.034;2023-06-14T09:07:44;16.50;;;8.65;;
20421;SDS011;10370;53.102;18.034;2023-06-14T09:13:11;19.55;;;8.95;;
20421;SDS011;10370;53.102;18.034;2023-06-14T09:18:38;14.45;;;8.43;;
20421;SDS011;10370;53.102;18.034;2023-06-14T09:24:04;18.92;;;8.70;;
20421;SDS011;10370;53.102;18.034;2023-06-14T09:29:28;17.13;;;9.07;;
20421;SDS011;10370;53.102;18.034;2023-06-14T09:34:53;15.75;;;8.40;;
20421;SDS011;10370;53.102;18.034;2023-06-14T09:40:20;18.27;;;8.60;;
20421;SDS011;10370;53.102;18.034;2023-06-14T09:45:44;17.05;;;8.30;;
20421;SDS011;10370;53.102;18.034;2023-06-14T09:51:13;15.25;;;9.25;;
20421;SDS011;10370;53.102;18.034;2023-06-14T09:56:38;16.27;;;8.48;;
20421;SDS011;10370;53.102;18.034;2023-06-14T10:02:21;16.48;;;8.13;;
20421;SDS011;10370;53.102;18.034;2023-06-14T10:13:09;20.25;;;7.82;;
20421;SDS011;10370;53.102;18.034;2023-06-14T10:18:45;17.20;;;8.18;;
20421;SDS011;10370;53.102;18.034;2023-06-14T10:24:29;19.52;;;8.15;;
20421;SDS011;10370;53.102;18.034;2023-06-14T10:30:03;14.20;;;8.10;;
20421;SDS011;10370;53.102;18.034;2023-06-14T10:35:27;14.63;;;7.65;;
20421;SDS011;10370;53.102;18.034;2023-06-14T10:40:53;17.40;;;7.78;;
20421;SDS011;10370;53.102;18.034;2023-06-14T10:46:18;16.60;;;7.82;;
20421;SDS011;10370;53.102;18.034;2023-06-14T10:51:45;11.93;;;7.70;;
20421;SDS011;10370;53.102;18.034;2023-06-14T10:57:12;17.60;;;8.02;;
20421;SDS011;10370;53.102;18.034;2023-06-14T11:03:02;14.85;;;7.47;;
20421;SDS011;10370;53.102;18.034;2023-06-14T11:14:23;15.65;;;7.47;;
20421;SDS011;10370;53.102;18.034;2023-06-14T11:19:46;16.30;;;7.47;;
20421;SDS011;10370;53.102;18.034;2023-06-14T11:25:09;12.25;;;7.13;;
20421;SDS011;10370;53.102;18.034;2023-06-14T11:30:32;15.13;;;7.10;;
20421;SDS011;10370;53.102;18.034;2023-06-14T11:35:56;11.15;;;6.85;;
20421;SDS011;10370;53.102;18.034;2023-06-14T11:41:18;13.23;;;7.72;;
20421;SDS011;10370;53.102;18.034;2023-06-14T11:46:41;15.75;;;7.55;;
20421;SDS011;10370;53.102;18.034;2023-06-14T11:52:05;12.45;;;8.05;;
20421;SDS011;10370;53.102;18.034;2023-06-14T11:57:34;12.98;;;7.15;;
20421;SDS011;10370;53.102;18.034;2023-06-14T12:02:58;10.90;;;6.63;;
20421;SDS011;10370;53.102;18.034;2023-06-14T12:08:21;11.18;;;6.65;;
20421;SDS011;10370;53.102;18.034;2023-06-14T12:14:00;8.05;;;6.20;;
20421;SDS011;10370;53.102;18.034;2023-06-14T12:19:25;14.60;;;6.53;;
20421;SDS011;10370;53.102;18.034;2023-06-14T12:24:48;9.40;;;6.50;;
20421;SDS011;10370;53.102;18.034;2023-06-14T12:30:11;12.82;;;6.60;;
20421;SDS011;10370;53.102;18.034;2023-06-14T12:35:34;11.35;;;7.60;;
20421;SDS011;10370;53.102;18.034;2023-06-14T12:40:57;14.02;;;8.73;;
20421;SDS011;10370;53.102;18.034;2023-06-14T12:46:19;18.67;;;8.80;;
20421;SDS011;10370;53.102;18.034;2023-06-14T12:51:43;15.98;;;8.20;;
20421;SDS011;10370;53.102;18.034;2023-06-14T12:57:06;13.68;;;7.88;;
20421;SDS011;10370;53.102;18.034;2023-06-14T13:02:28;14.98;;;8.45;;
20421;SDS011;10370;53.102;18.034;2023-06-14T13:07:51;12.32;;;8.10;;
20421;SDS011;10370;53.102;18.034;2023-06-14T13:13:14;15.30;;;7.75;;
20421;SDS011;10370;53.102;18.034;2023-06-14T13:18:37;21.38;;;8.40;;
20421;SDS011;10370;53.102;18.034;2023-06-14T13:24:00;25.35;;;8.80;;
20421;SDS011;10370;53.102;18.034;2023-06-14T13:29:23;14.98;;;7.35;;
20421;SDS011;10370;53.102;18.034;2023-06-14T13:34:46;12.27;;;6.97;;
20421;SDS011;10370;53.102;18.034;2023-06-14T13:40:09;18.33;;;7.15;;
20421;SDS011;10370;53.102;18.034;2023-06-14T13:45:32;13.30;;;8.10;;
20421;SDS011;10370;53.102;18.034;2023-06-14T13:50:55;13.32;;;7.30;;
20421;SDS011;10370;53.102;18.034;2023-06-14T13:56:18;11.55;;;6.72;;
20421;SDS011;10370;53.102;18.034;2023-06-14T14:01:41;11.02;;;6.40;;
20421;SDS011;10370;53.102;18.034;2023-06-14T14:07:04;15.20;;;7.05;;
20421;SDS011;10370;53.102;18.034;2023-06-14T14:12:28;12.98;;;6.80;;
20421;SDS011;10370;53.102;18.034;2023-06-14T14:17:50;11.70;;;6.72;;
20421;SDS011;10370;53.102;18.034;2023-06-14T14:23:15;14.98;;;6.40;;
20421;SDS011;10370;53.102;18.034;2023-06-14T14:28:38;10.73;;;6.15;;
20421;SDS011;10370;53.102;18.034;2023-06-14T14:34:01;12.48;;;6.05;;
20421;SDS011;10370;53.102;18.034;2023-06-14T14:39:24;11.82;;;6.38;;
20421;SDS011;10370;53.102;18.034;2023-06-14T14:44:46;13.40;;;6.47;;
20421;SDS011;10370;53.102;18.034;2023-06-14T14:50:18;11.48;;;5.90;;
20421;SDS011;10370;53.102;18.034;2023-06-14T14:55:44;13.32;;;6.72;;
20421;SDS011;10370;53.102;18.034;2023-06-14T15:01:07;17.10;;;5.90;;
20421;SDS011;10370;53.102;18.034;2023-06-14T15:06:30;11.15;;;5.60;;
20421;SDS011;10370;53.102;18.034;2023-06-14T15:11:53;9.57;;;4.85;;
20421;SDS011;10370;53.102;18.034;2023-06-14T15:17:16;11.15;;;5.13;;
20421;SDS011;10370;53.102;18.034;2023-06-14T15:22:40;10.52;;;5.10;;
20421;SDS011;10370;53.102;18.034;2023-06-14T15:28:03;10.05;;;4.90;;
20421;SDS011;10370;53.102;18.034;2023-06-14T15:33:28;6.38;;;3.97;;
20421;SDS011;10370;53.102;18.034;2023-06-14T15:38:51;10.20;;;4.43;;
20421;SDS011;10370;53.102;18.034;2023-06-14T15:44:14;5.28;;;3.97;;
20421;SDS011;10370;53.102;18.034;2023-06-14T15:49:37;9.98;;;4.05;;
20421;SDS011;10370;53.102;18.034;2023-06-14T15:55:00;7.82;;;4.60;;
20421;SDS011;10370;53.102;18.034;2023-06-14T16:00:23;5.65;;;4.28;;
20421;SDS011;10370;53.102;18.034;2023-06-14T16:05:47;8.25;;;4.57;;
20421;SDS011;10370;53.102;18.034;2023-06-14T16:11:10;8.45;;;4.60;;
20421;SDS011;10370;53.102;18.034;2023-06-14T16:16:33;10.80;;;5.80;;
20421;SDS011;10370;53.102;18.034;2023-06-14T16:21:55;16.27;;;8.32;;
20421;SDS011;10370;53.102;18.034;2023-06-14T16:27:18;35.58;;;16.90;;
20421;SDS011;10370;53.102;18.034;2023-06-14T16:32:41;34.25;;;16.42;;
20421;SDS011;10370;53.102;18.034;2023-06-14T16:38:05;13.82;;;7.93;;
20421;SDS011;10370;53.102;18.034;2023-06-14T16:43:31;63.42;;;30.60;;
20421;SDS011;10370;53.102;18.034;2023-06-14T16:48:53;13.00;;;9.20;;
20421;SDS011;10370;53.102;18.034;2023-06-14T16:54:16;11.68;;;7.85;;
20421;SDS011;10370;53.102;18.034;2023-06-14T16:59:39;13.20;;;7.13;;
20421;SDS011;10370;53.102;18.034;2023-06-14T17:05:02;15.15;;;7.78;;
20421;SDS011;10370;53.102;18.034;2023-06-14T17:10:27;21.77;;;6.80;;
20421;SDS011;10370;53.102;18.034;2023-06-14T17:15:50;9.77;;;6.65;;
20421;SDS011;10370;53.102;18.034;2023-06-14T17:21:13;8.85;;;6.85;;
20421;SDS011;10370;53.102;18.034;2023-06-14T17:26:36;11.93;;;7.00;;
20421;SDS011;10370;53.102;18.034;2023-06-14T17:31:59;12.02;;;7.25;;
20421;SDS011;10370;53.102;18.034;2023-06-14T17:37:22;12.77;;;7.35;;
20421;SDS011;10370;53.102;18.034;2023-06-14T17:42:44;13.18;;;8.55;;
20421;SDS011;10370;53.102;18.034;2023-06-14T17:48:07;15.35;;;9.07;;
20421;SDS011;10370;53.102;18.034;2023-06-14T17:53:30;14.25;;;9.32;;
20421;SDS011;10370;53.102;18.034;2023-06-14T17:58:53;14.88;;;9.55;;
20421;SDS011;10370;53.102;18.034;2023-06-14T18:04:17;13.27;;;9.85;;
20421;SDS011;10370;53.102;18.034;2023-06-14T18:09:40;15.68;;;11.15;;
20421;SDS011;10370;53.102;18.034;2023-06-14T18:15:07;16.55;;;10.85;;
20421;SDS011;10370;53.102;18.034;2023-06-14T18:20:31;14.23;;;10.13;;
20421;SDS011;10370;53.102;18.034;2023-06-14T18:25:55;16.23;;;10.32;;
20421;SDS011;10370;53.102;18.034;2023-06-14T18:31:18;14.35;;;10.23;;
20421;SDS011;10370;53.102;18.034;2023-06-14T18:36:42;15.10;;;10.20;;
20421;SDS011;10370;53.102;18.034;2023-06-14T18:42:05;15.25;;;11.00;;
20421;SDS011;10370;53.102;18.034;2023-06-14T18:47:32;20.45;;;11.10;;
20421;SDS011;10370;53.102;18.034;2023-06-14T18:52:58;15.52;;;10.88;;
20421;SDS011;10370;53.102;18.034;2023-06-14T18:58:21;17.30;;;11.50;;
20421;SDS011;10370;53.102;18.034;2023-06-14T19:03:44;16.67;;;11.02;;
20421;SDS011;10370;53.102;18.034;2023-06-14T19:09:10;15.02;;;11.57;;
20421;SDS011;10370;53.102;18.034;2023-06-14T19:14:34;16.70;;;11.48;;
20421;SDS011;10370;53.102;18.034;2023-06-14T19:19:57;18.85;;;11.77;;
20421;SDS011;10370;53.102;18.034;2023-06-14T19:25:20;17.15;;;11.98;;
20421;SDS011;10370;53.102;18.034;2023-06-14T19:36:40;23.25;;;13.23;;
20421;SDS011;10370;53.102;18.034;2023-06-14T19:42:06;19.10;;;13.35;;
20421;SDS011;10370;53.102;18.034;2023-06-14T19:47:29;23.95;;;14.20;;
20421;SDS011;10370;53.102;18.034;2023-06-14T19:52:52;18.65;;;13.50;;
20421;SDS011;10370;53.102;18.034;2023-06-14T19:58:15;21.88;;;14.13;;
20421;SDS011;10370;53.102;18.034;2023-06-14T20:03:38;20.83;;;14.13;;
20421;SDS011;10370;53.102;18.034;2023-06-14T20:09:01;24.85;;;15.02;;
20421;SDS011;10370;53.102;18.034;2023-06-14T20:14:42;24.00;;;15.60;;
20421;SDS011;10370;53.102;18.034;2023-06-14T20:20:07;23.88;;;15.32;;
20421;SDS011;10370;53.102;18.034;2023-06-14T20:25:32;23.13;;;14.73;;
20421;SDS011;10370;53.102;18.034;2023-06-14T20:30:55;22.67;;;15.55;;
20421;SDS011;10370;53.102;18.034;2023-06-14T20:36:18;20.25;;;14.90;;
20421;SDS011;10370;53.102;18.034;2023-06-14T20:41:41;20.75;;;14.50;;
20421;SDS011;10370;53.102;18.034;2023-06-14T20:47:08;19.23;;;14.23;;
20421;SDS011;10370;53.102;18.034;2023-06-14T20:52:40;23.10;;;15.93;;
20421;SDS011;10370;53.102;18.034;2023-06-14T20:58:04;21.48;;;16.30;;
20421;SDS011;10370;53.102;18.034;2023-06-14T21:03:28;22.20;;;15.57;;
20421;SDS011;10370;53.102;18.034;2023-06-14T21:08:51;22.63;;;17.30;;
20421;SDS011;10370;53.102;18.034;2023-06-14T21:14:13;20.75;;;14.20;;
20421;SDS011;10370;53.102;18.034;2023-06-14T21:19:36;21.98;;;15.85;;
20421;SDS011;10370;53.102;18.034;2023-06-14T21:25:03;21.85;;;15.57;;
20421;SDS011;10370;53.102;18.034;2023-06-14T21:30:32;21.98;;;16.75;;
20421;SDS011;10370;53.102;18.034;2023-06-14T21:35:57;24.95;;;15.80;;
20421;SDS011;10370;53.102;18.034;2023-06-14T21:41:20;21.58;;;15.27;;
20421;SDS011;10370;53.102;18.034;2023-06-14T21:46:45;22.83;;;14.85;;
20421;SDS011;10370;53.102;18.034;2023-06-14T21:52:08;24.13;;;14.48;;
20421;SDS011;10370;53.102;18.034;2023-06-14T21:57:31;20.73;;;14.90;;
20421;SDS011;10370;53.102;18.034;2023-06-14T22:02:56;19.90;;;14.68;;
20421;SDS011;10370;53.102;18.034;2023-06-14T22:08:18;20.15;;;14.90;;
20421;SDS011;10370;53.102;18.034;2023-06-14T22:13:43;26.90;;;18.77;;
20421;SDS011;10370;53.102;18.034;2023-06-14T22:19:05;26.27;;;18.38;;
20421;SDS011;10370;53.102;18.034;2023-06-14T22:24:29;26.80;;;18.05;;
20421;SDS011;10370;53.102;18.034;2023-06-14T22:29:53;22.33;;;15.90;;
20421;SDS011;10370;53.102;18.034;2023-06-14T22:35:20;21.63;;;14.90;;
20421;SDS011;10370;53.102;18.034;2023-06-14T22:40:45;20.92;;;15.20;;
20421;SDS011;10370;53.102;18.034;2023-06-14T22:46:10;17.98;;;13.38;;
20421;SDS011;10370;53.102;18.034;2023-06-14T22:51:45;17.58;;;12.73;;
20421;SDS011;10370;53.102;18.034;2023-06-14T22:57:08;20.85;;;12.52;;
20421;SDS011;10370;53.102;18.034;2023-06-14T23:02:38;19.17;;;12.57;;
20421;SDS011;10370;53.102;18.034;2023-06-14T23:08:02;23.00;;;13.18;;
20421;SDS011;10370;53.102;18.034;2023-06-14T23:13:25;15.55;;;12.82;;
20421;SDS011;10370;53.102;18.034;2023-06-14T23:18:48;18.73;;;13.88;;
20421;SDS011;10370;53.102;18.034;2023-06-14T23:24:11;25.10;;;14.27;;
20421;SDS011;10370;53.102;18.034;2023-06-14T23:29:35;18.27;;;14.18;;
20421;SDS011;10370;53.102;18.034;2023-06-14T23:35:02;21.67;;;14.50;;
20421;SDS011;10370;53.102;18.034;2023-06-14T23:40:27;19.73;;;14.07;;
20421;SDS011;10370;53.102;18.034;2023-06-14T23:45:50;24.88;;;15.43;;
20421;SDS011;10370;53.102;18.034;2023-06-14T23:51:17;27.90;;;15.77;;
20421;SDS011;10370;53.102;18.034;2023-06-14T23:56:40;22.58;;;15.75;;
